Terminal Aerodrome Forecast
Issued by NWS

Home | Current Version | Previous Version | Text Only | Print | Product List | Glossary On
Versions: 1 2 3 4 5 6 7 8 9 10 11 12 13 14 15
000
FTUS45 KTWC 182300
TAFOLS
TAF
KOLS 182322Z 1900/1924 16008KT P6SM VCSH BKN100 BKN200
     FM190600 16005KT P6SM BKN070 BKN200
     FM192000 22010G18KT P6SM VCSH BKN070 BKN200=

USA.gov is the U.S. government's official web portal to all federal, state and local government web resources and services.